Hauptseite
METAR-TAF:

METAR-TAF

Flughäfen :

Brunei, Brunei

Flughafen Brunei International

Breite: 04-56N, Länge: 114-56E, Höhe: 22 m

Beobachtung

Neuester Wetterbericht von vor 37 Minuten, um 02:00 UTC
Wind 2 kt aus Süd/Südwest
Temperatur 31°C
Luftfeuchtigkeit 66%
Luftdruck 1011 hPa
Sichtweite 10 km oder mehr
Leicht bewölkt in der Höhe von 1600 ft
Durchbrochene Bewölkung in der Höhe von 30000 ft

METAR: WBSB 280200Z 21002KT 9999 FEW016 BKN300 31/24 Q1011 NOSIG

Zeit: 10:37 (02:37 UTC)

Prognose

Neuester Wetterbericht von vor 3 Stunden und 37 Minuten, um 23:00 UTC
Gültige Prognose vom 28 um 00 UTC bis 29 um 06 UTC
Wind 4 kt aus Süd/Südwest
Sichtweite 10 km oder mehr
Leicht bewölkt in der Höhe von 1500 ft
Übergehend zu
vom 28 um 03 UTC bis 28 um 05 UTC
Wind 9 kt aus Nord/Nordwest
Leicht bewölkt in der Höhe von 1600 ft

TAF: WBSB 272300Z 2800/2906 21004KT 9999 FEW015 BECMG 2803/2805 33009KT FEW016

Wetterbeobachtungen und Prognosen von mehr als 4000 Flughäfen (METAR und TAF Bericht).

Die verfügbaren Stationen werden durch gelbe und rote Markierungen auf der Karte dargestellt.

Führen Sie die Maus auf sie, um den Namen der Station zu sehen.

Darauf klicken, um die Beobachtung von Wetterbeobachtungen und Prognosen zu sehen.

Um die Karte zu ändern : klicken Sie auf den grünen Tasten mit einem schwarzen Kreuz Zum Vergrößern, auf den grünen Button mit einem Gedankenstrich zu verkleinern, oder auf die grünen Pfeile für benachbarte Karten.


METAR-TAF: